createdAt,value
2018-07-21T00:00:48.457Z,5.80
2018-07-21T00:03:17.627Z,5.77
2018-07-21T00:05:46.766Z,5.77
2018-07-21T00:08:15.934Z,5.77
2018-07-21T00:10:45.121Z,5.90
2018-07-21T00:13:14.336Z,6.10
2018-07-21T00:15:43.558Z,5.20
2018-07-21T00:18:12.729Z,6.00
2018-07-21T00:20:42.012Z,6.50
2018-07-21T00:23:11.175Z,6.07
2018-07-21T00:25:40.403Z,6.60
2018-07-21T00:28:09.608Z,6.27
2018-07-21T00:30:38.845Z,5.20
2018-07-21T00:33:08.085Z,7.80
2018-07-21T00:35:37.309Z,6.40
2018-07-21T00:38:06.445Z,5.57
2018-07-21T00:40:35.606Z,5.70
2018-07-21T00:43:04.840Z,6.50
2018-07-21T00:45:34.032Z,5.50
2018-07-21T00:48:03.204Z,6.67
2018-07-21T00:50:32.402Z,6.40
2018-07-21T00:53:01.603Z,6.40
2018-07-21T00:55:30.841Z,6.30
2018-07-21T00:58:00.075Z,6.30
2018-07-21T01:00:29.268Z,6.27
2018-07-21T01:02:58.493Z,6.27
2018-07-21T01:05:27.799Z,8.00
2018-07-21T01:07:57.012Z,7.37
2018-07-21T01:10:26.151Z,7.00
2018-07-21T01:12:55.426Z,7.93
2018-07-21T01:15:24.570Z,6.67
2018-07-21T01:17:53.846Z,6.60
2018-07-21T01:20:23.384Z,6.57
2018-07-21T01:22:52.612Z,9.47
2018-07-21T01:25:21.763Z,6.70
2018-07-21T01:27:50.939Z,6.90
2018-07-21T01:30:20.241Z,7.40
2018-07-21T01:32:49.455Z,8.70
2018-07-21T01:35:18.684Z,7.90
2018-07-21T01:37:47.884Z,8.27
2018-07-21T01:40:17.051Z,8.47
2018-07-21T01:42:46.332Z,8.07
2018-07-21T01:45:15.530Z,8.00
2018-07-21T01:47:44.697Z,7.90
2018-07-21T01:50:13.870Z,7.47
2018-07-21T01:52:43.143Z,7.90
2018-07-21T01:55:12.337Z,6.90
2018-07-21T01:57:41.544Z,6.40
2018-07-21T02:00:10.774Z,7.20
2018-07-21T02:02:39.993Z,7.00
2018-07-21T02:05:09.221Z,7.50
2018-07-21T02:07:38.511Z,7.33
2018-07-21T02:10:07.789Z,7.30
2018-07-21T02:12:37.069Z,7.93
2018-07-21T02:15:06.300Z,6.63
2018-07-21T02:17:35.535Z,7.50
2018-07-21T02:20:04.984Z,7.10
2018-07-21T02:22:34.245Z,7.87
2018-07-21T02:25:03.534Z,8.20
2018-07-21T02:27:32.824Z,7.90
2018-07-21T02:30:01.887Z,7.00
2018-07-21T02:32:31.105Z,7.30
2018-07-21T02:35:00.264Z,7.60
2018-07-21T02:37:29.437Z,7.20
2018-07-21T02:39:58.576Z,7.37
2018-07-21T02:42:27.866Z,6.93
2018-07-21T02:44:57.041Z,7.57
2018-07-21T02:47:26.278Z,7.53
2018-07-21T02:49:55.444Z,6.90
2018-07-21T02:52:24.626Z,7.13
2018-07-21T02:54:53.786Z,7.60
2018-07-21T02:57:22.975Z,7.87
2018-07-21T02:59:52.114Z,6.93
2018-07-21T03:02:21.329Z,7.43
2018-07-21T03:04:50.482Z,7.17
2018-07-21T03:07:19.678Z,6.80
2018-07-21T03:09:48.871Z,6.80
2018-07-21T03:12:18.057Z,7.07
2018-07-21T03:14:47.290Z,6.00
2018-07-21T03:17:16.445Z,7.20
2018-07-21T03:19:45.598Z,7.90
2018-07-21T03:22:14.811Z,7.97
2018-07-21T03:24:44.097Z,8.40
2018-07-21T03:27:13.304Z,7.20
2018-07-21T03:29:42.212Z,7.53
2018-07-21T03:32:11.530Z,7.80
2018-07-21T03:34:40.954Z,7.50
2018-07-21T03:37:10.478Z,7.70
2018-07-21T03:39:39.856Z,7.90
2018-07-21T03:42:09.145Z,6.43
2018-07-21T03:44:38.636Z,7.10
2018-07-21T03:47:08.110Z,7.40
2018-07-21T03:49:37.392Z,7.20
2018-07-21T03:52:06.740Z,8.50
2018-07-21T03:54:36.046Z,7.17
2018-07-21T03:57:05.293Z,6.50
2018-07-21T03:59:34.621Z,7.43
2018-07-21T04:02:03.908Z,7.33
2018-07-21T04:04:32.860Z,7.90
2018-07-21T04:07:01.985Z,7.67
2018-07-21T04:09:31.229Z,7.17
2018-07-21T04:12:00.543Z,7.83
2018-07-21T04:14:29.819Z,7.27
2018-07-21T04:16:59.117Z,7.00
2018-07-21T04:19:28.047Z,7.43
2018-07-21T04:21:57.269Z,8.00
2018-07-21T04:24:26.539Z,6.90
2018-07-21T04:26:55.766Z,6.67
2018-07-21T04:29:24.982Z,6.57
2018-07-21T04:31:54.484Z,7.23
2018-07-21T04:34:23.830Z,7.27
2018-07-21T04:36:53.037Z,7.30
2018-07-21T04:39:22.270Z,6.70
2018-07-21T04:41:51.513Z,7.83
2018-07-21T04:44:20.861Z,7.10
2018-07-21T04:46:50.139Z,7.00
2018-07-21T04:49:19.365Z,7.67
2018-07-21T04:51:48.796Z,7.17
2018-07-21T04:54:18.051Z,7.30
2018-07-21T04:56:47.363Z,7.40
2018-07-21T04:59:16.645Z,7.40
2018-07-21T05:01:45.916Z,6.40
2018-07-21T05:04:15.213Z,7.83
2018-07-21T05:06:44.544Z,6.80
2018-07-21T05:09:13.993Z,6.80
2018-07-21T05:11:43.382Z,6.57
2018-07-21T05:14:12.793Z,7.07
2018-07-21T05:16:42.168Z,7.03
2018-07-21T05:19:11.568Z,7.40
2018-07-21T05:21:40.851Z,6.10
2018-07-21T05:24:09.801Z,6.50
2018-07-21T05:26:38.948Z,6.50
2018-07-21T05:29:08.287Z,5.93
2018-07-21T05:31:37.699Z,6.37
2018-07-21T05:34:07.002Z,6.60
2018-07-21T05:36:36.271Z,4.93
2018-07-21T05:39:07.053Z,5.50
2018-07-21T05:41:36.350Z,5.43
2018-07-21T05:44:05.704Z,5.20
2018-07-21T05:46:35.359Z,5.20
2018-07-21T05:49:04.641Z,5.63
2018-07-21T05:51:33.974Z,4.70
2018-07-21T05:54:03.238Z,5.20
2018-07-21T05:56:32.505Z,5.23
2018-07-21T05:59:01.762Z,5.80
2018-07-21T06:01:31.097Z,5.53
2018-07-21T06:04:00.076Z,5.50
2018-07-21T06:06:29.294Z,5.40
2018-07-21T06:08:58.950Z,5.30
2018-07-21T06:11:28.228Z,6.47
2018-07-21T06:13:57.530Z,5.40
2018-07-21T06:16:26.818Z,5.63
2018-07-21T06:18:56.193Z,6.20
2018-07-21T06:21:25.445Z,5.33
2018-07-21T06:23:54.724Z,5.80
2018-07-21T06:26:24.022Z,7.33
2018-07-21T06:28:53.310Z,6.00
2018-07-21T06:31:22.653Z,6.07
2018-07-21T06:33:51.926Z,6.03
2018-07-21T06:36:21.498Z,6.43
2018-07-21T06:38:50.757Z,6.80
2018-07-21T06:41:20.100Z,7.50
2018-07-21T06:43:49.481Z,6.13
2018-07-21T06:46:18.786Z,6.67
2018-07-21T06:48:48.092Z,7.80
2018-07-21T06:51:17.401Z,6.00
2018-07-21T06:53:46.763Z,5.90
2018-07-21T06:56:16.366Z,5.77
2018-07-21T06:58:45.691Z,6.50
2018-07-21T07:01:15.275Z,6.57
2018-07-21T07:03:44.545Z,6.40
2018-07-21T07:06:13.791Z,5.83
2018-07-21T07:08:43.133Z,6.40
2018-07-21T07:11:12.612Z,7.60
2018-07-21T07:13:41.952Z,5.37
2018-07-21T07:16:10.916Z,7.07
2018-07-21T07:18:40.069Z,6.70
2018-07-21T07:21:09.487Z,6.93
2018-07-21T07:23:38.973Z,6.50
2018-07-21T07:26:08.336Z,6.90
2018-07-21T07:28:37.707Z,7.93
2018-07-21T07:31:07.081Z,7.57
2018-07-21T07:33:36.424Z,7.50
2018-07-21T07:36:05.734Z,6.80
2018-07-21T07:38:35.001Z,6.90
2018-07-21T07:41:04.385Z,7.33
2018-07-21T07:43:33.752Z,6.60
2018-07-21T07:46:03.036Z,6.97
2018-07-21T07:48:32.295Z,6.67
2018-07-21T07:51:01.559Z,5.97
2018-07-21T07:53:31.526Z,5.33
2018-07-21T07:56:07.694Z,6.83
2018-07-21T07:58:38.670Z,5.80
2018-07-21T08:01:08.833Z,6.20
2018-07-21T08:03:39.972Z,5.63
2018-07-21T08:06:10.305Z,5.53
2018-07-21T08:08:40.745Z,5.57
2018-07-21T08:11:10.160Z,5.50
2018-07-21T08:13:39.457Z,5.37
2018-07-21T08:16:08.732Z,6.07
2018-07-21T08:18:38.050Z,5.40
2018-07-21T08:21:07.479Z,5.03
2018-07-21T08:23:37.698Z,4.20
2018-07-21T08:26:07.884Z,5.73
2018-07-21T08:28:37.238Z,4.63
2018-07-21T08:31:06.561Z,5.20
2018-07-21T08:33:35.854Z,4.03
2018-07-21T08:36:05.368Z,4.47
2018-07-21T08:38:34.733Z,4.73
2018-07-21T08:41:04.008Z,4.20
2018-07-21T08:43:33.331Z,4.47
2018-07-21T08:46:02.611Z,5.60
2018-07-21T08:48:31.894Z,4.77
2018-07-21T08:51:01.120Z,4.00
2018-07-21T08:53:30.393Z,4.27
2018-07-21T08:55:59.657Z,3.80
2018-07-21T08:58:28.958Z,4.10
2018-07-21T09:00:58.317Z,3.80
2018-07-21T09:03:27.586Z,4.80
2018-07-21T09:05:56.873Z,5.63
2018-07-21T09:08:26.141Z,4.07
2018-07-21T09:10:55.588Z,3.90
2018-07-21T09:13:25.348Z,5.37
2018-07-21T09:15:55.595Z,4.37
2018-07-21T09:18:24.946Z,5.70
2018-07-21T09:20:54.237Z,4.30
2018-07-21T09:23:23.505Z,4.00
2018-07-21T09:25:52.863Z,4.33
2018-07-21T09:28:22.229Z,4.43
2018-07-21T09:30:51.502Z,4.33
2018-07-21T09:33:20.799Z,5.00
2018-07-21T09:35:50.078Z,4.60
2018-07-21T09:38:19.376Z,5.00
2018-07-21T09:40:48.643Z,4.80
2018-07-21T09:43:17.889Z,3.80
2018-07-21T09:45:47.226Z,4.70
2018-07-21T09:48:16.465Z,4.93
2018-07-21T09:50:45.828Z,4.50
2018-07-21T09:53:15.104Z,5.10
2018-07-21T09:55:44.481Z,4.10
2018-07-21T09:58:13.761Z,4.50
2018-07-21T10:00:48.481Z,5.43
2018-07-21T10:03:17.706Z,4.80
2018-07-21T10:05:46.996Z,4.80
2018-07-21T10:08:16.323Z,5.57
2018-07-21T10:10:45.687Z,4.20
2018-07-21T10:13:14.997Z,5.07
2018-07-21T10:15:44.269Z,4.33
2018-07-21T10:18:13.520Z,4.37
2018-07-21T10:20:42.819Z,4.70
2018-07-21T10:23:12.367Z,5.50
2018-07-21T10:25:46.818Z,4.00
2018-07-21T10:28:21.655Z,4.50
2018-07-21T10:30:50.850Z,4.40
2018-07-21T10:33:20.172Z,4.80
2018-07-21T10:35:49.461Z,4.90
2018-07-21T10:38:18.985Z,5.20
2018-07-21T10:40:48.249Z,4.57
2018-07-21T10:43:17.506Z,4.33
2018-07-21T10:45:46.787Z,4.50
2018-07-21T10:48:16.133Z,5.10
2018-07-21T10:50:45.469Z,4.53
2018-07-21T10:53:14.667Z,5.60
2018-07-21T10:55:43.941Z,5.47
2018-07-21T10:58:13.239Z,5.17
2018-07-21T11:00:42.614Z,5.20
2018-07-21T11:03:11.947Z,5.10
2018-07-21T11:05:41.467Z,5.60
2018-07-21T11:08:10.790Z,5.20
2018-07-21T11:10:40.034Z,4.90
2018-07-21T11:13:09.314Z,5.20
2018-07-21T11:15:38.621Z,5.07
2018-07-21T11:18:07.973Z,5.10
2018-07-21T11:20:37.280Z,5.63
2018-07-21T11:23:06.550Z,4.87
2018-07-21T11:25:35.872Z,5.07
2018-07-21T11:28:05.416Z,6.07
2018-07-21T11:30:34.709Z,5.10
2018-07-21T11:33:04.119Z,5.90
2018-07-21T11:35:33.603Z,5.10
2018-07-21T11:38:02.975Z,5.20
2018-07-21T11:40:32.459Z,5.80
2018-07-21T11:43:01.970Z,5.33
2018-07-21T11:45:31.358Z,5.60
2018-07-21T11:48:00.625Z,5.97
2018-07-21T11:50:30.008Z,5.70
2018-07-21T11:52:59.422Z,5.80
2018-07-21T11:55:28.686Z,5.57
2018-07-21T11:57:58.005Z,5.30
2018-07-21T12:00:27.291Z,6.03
2018-07-21T12:02:56.609Z,5.67
2018-07-21T12:05:25.944Z,5.00
2018-07-21T12:07:55.529Z,4.67
2018-07-21T12:10:24.936Z,5.50
2018-07-21T12:12:54.279Z,6.10
2018-07-21T12:15:23.648Z,5.23
2018-07-21T12:17:52.908Z,5.43
2018-07-21T12:20:22.263Z,5.40
2018-07-21T12:22:51.608Z,5.47
2018-07-21T12:25:20.876Z,5.10
2018-07-21T12:27:50.145Z,4.27
2018-07-21T12:30:19.417Z,4.93
2018-07-21T12:32:48.699Z,4.43
2018-07-21T12:35:18.205Z,4.00
2018-07-21T12:37:47.520Z,3.80
2018-07-21T12:40:16.770Z,4.40
2018-07-21T12:42:46.123Z,4.60
2018-07-21T12:45:15.374Z,5.10
2018-07-21T12:47:44.654Z,5.40
2018-07-21T12:50:14.008Z,5.47
2018-07-21T12:52:43.252Z,5.87
2018-07-21T12:55:12.489Z,4.63
2018-07-21T12:57:41.757Z,5.53
2018-07-21T13:00:11.053Z,4.80
2018-07-21T13:02:40.734Z,4.70
2018-07-21T13:05:10.013Z,5.17
2018-07-21T13:07:39.292Z,4.93
2018-07-21T13:10:08.530Z,4.40
2018-07-21T13:12:37.874Z,4.50
2018-07-21T13:15:07.513Z,4.53
2018-07-21T13:17:36.904Z,4.30
2018-07-21T13:20:06.317Z,3.87
2018-07-21T13:22:35.562Z,4.40
2018-07-21T13:25:04.993Z,4.07
2018-07-21T13:27:34.349Z,4.50
2018-07-21T13:30:03.685Z,3.73
2018-07-21T13:32:33.000Z,4.00
2018-07-21T13:35:02.254Z,4.23
2018-07-21T13:37:31.541Z,3.73
2018-07-21T13:40:00.889Z,4.50
2018-07-21T13:42:30.228Z,4.23
2018-07-21T13:44:59.525Z,4.07
2018-07-21T13:47:28.798Z,3.33
2018-07-21T13:49:58.163Z,4.17
2018-07-21T13:52:27.517Z,3.70
2018-07-21T13:54:56.884Z,4.30
2018-07-21T13:57:26.242Z,4.20
2018-07-21T13:59:55.482Z,4.37
2018-07-21T14:02:24.731Z,4.43
2018-07-21T14:04:54.287Z,3.80
2018-07-21T14:07:23.697Z,4.30
2018-07-21T14:09:53.322Z,4.27
2018-07-21T14:12:22.588Z,4.87
2018-07-21T14:14:51.973Z,3.80
2018-07-21T14:17:21.289Z,4.83
2018-07-21T14:19:50.522Z,4.90
2018-07-21T14:22:19.872Z,4.27
2018-07-21T14:24:49.187Z,4.70
2018-07-21T14:27:18.473Z,5.00
2018-07-21T14:29:47.867Z,4.43
2018-07-21T14:32:17.181Z,6.10
2018-07-21T14:34:46.490Z,4.70
2018-07-21T14:37:15.783Z,4.90
2018-07-21T14:39:45.128Z,4.80
2018-07-21T14:42:14.391Z,5.50
2018-07-21T14:44:43.654Z,5.30
2018-07-21T14:47:13.089Z,5.60
2018-07-21T14:49:42.345Z,4.70
2018-07-21T14:52:11.673Z,4.33
2018-07-21T14:54:41.050Z,4.73
2018-07-21T14:57:10.286Z,5.57
2018-07-21T14:59:39.614Z,5.30
2018-07-21T15:02:08.856Z,4.70
2018-07-21T15:04:38.281Z,5.13
2018-07-21T15:07:07.569Z,5.23
2018-07-21T15:09:36.900Z,5.10
2018-07-21T15:12:06.249Z,5.40
2018-07-21T15:14:35.571Z,5.37
2018-07-21T15:17:04.929Z,6.00
2018-07-21T15:19:34.307Z,5.73
2018-07-21T15:22:03.624Z,5.87
2018-07-21T15:24:32.886Z,6.30
2018-07-21T15:27:02.179Z,5.40
2018-07-21T15:29:31.529Z,6.87
2018-07-21T15:32:00.858Z,6.50
2018-07-21T15:34:30.134Z,6.57
2018-07-21T15:36:59.417Z,7.10
2018-07-21T15:39:28.767Z,6.73
2018-07-21T15:41:58.099Z,6.43
2018-07-21T15:44:27.398Z,5.80
2018-07-21T15:46:56.698Z,6.60
2018-07-21T15:49:26.059Z,5.97
2018-07-21T15:51:55.514Z,6.03
2018-07-21T15:54:25.861Z,5.23
2018-07-21T15:56:55.407Z,6.00
2018-07-21T15:59:24.776Z,5.70
2018-07-21T16:01:54.050Z,6.13
2018-07-21T16:04:23.436Z,5.80
2018-07-21T16:06:52.657Z,6.07
2018-07-21T16:09:22.021Z,5.80
2018-07-21T16:11:51.298Z,5.80
2018-07-21T16:14:21.049Z,5.63
2018-07-21T16:16:50.447Z,5.87
2018-07-21T16:19:19.820Z,5.70
2018-07-21T16:21:49.081Z,5.60
2018-07-21T16:24:18.401Z,5.53
2018-07-21T16:26:47.673Z,5.50
2018-07-21T16:29:17.215Z,5.77
2018-07-21T16:31:46.513Z,5.53
2018-07-21T16:34:15.809Z,5.77
2018-07-21T16:36:45.162Z,5.90
2018-07-21T16:39:14.442Z,6.60
2018-07-21T16:41:43.749Z,4.87
2018-07-21T16:44:13.009Z,5.70
2018-07-21T16:46:42.326Z,6.40
2018-07-21T16:49:11.648Z,5.90
2018-07-21T16:51:40.890Z,6.30
2018-07-21T16:54:10.140Z,6.83
2018-07-21T16:56:39.445Z,6.20
2018-07-21T16:59:08.730Z,6.20
2018-07-21T17:01:38.039Z,6.27
2018-07-21T17:04:07.777Z,6.97
2018-07-21T17:06:37.050Z,6.80
2018-07-21T17:09:07.938Z,7.20
2018-07-21T17:11:37.302Z,7.03
2018-07-21T17:14:07.000Z,7.50
2018-07-21T17:16:36.262Z,7.00
2018-07-21T17:19:05.959Z,7.70
2018-07-21T17:21:35.259Z,6.77
2018-07-21T17:24:04.504Z,7.77
2018-07-21T17:26:33.797Z,6.43
2018-07-21T17:29:03.137Z,7.57
2018-07-21T17:31:32.459Z,7.50
2018-07-21T17:34:01.775Z,7.50
2018-07-21T17:36:31.062Z,7.03
2018-07-21T17:39:00.326Z,6.80
2018-07-21T17:41:29.695Z,6.73
2018-07-21T17:43:58.909Z,7.20
2018-07-21T17:46:28.159Z,6.83
2018-07-21T17:48:57.497Z,6.47
2018-07-21T17:51:26.830Z,7.43
2018-07-21T17:53:56.169Z,6.43
2018-07-21T17:56:25.592Z,7.70
2018-07-21T17:58:54.840Z,7.27
2018-07-21T18:01:24.104Z,7.13
2018-07-21T18:03:53.472Z,6.10
2018-07-21T18:06:22.789Z,7.27
2018-07-21T18:08:52.144Z,7.13
2018-07-21T18:11:21.469Z,7.17
2018-07-21T18:13:57.561Z,7.10
2018-07-21T18:16:26.850Z,7.50
2018-07-21T18:18:57.191Z,7.07
2018-07-21T18:21:26.952Z,6.70
2018-07-21T18:23:57.826Z,7.60
2018-07-21T18:26:29.430Z,7.53
2018-07-21T18:28:58.898Z,7.83
2018-07-21T18:31:28.672Z,8.30
2018-07-21T18:33:58.505Z,7.67
2018-07-21T18:36:27.856Z,7.50
2018-07-21T18:38:57.119Z,7.63
2018-07-21T18:41:26.474Z,7.07
2018-07-21T18:43:56.341Z,7.47
2018-07-21T18:46:27.248Z,7.87
2018-07-21T18:48:56.704Z,8.20
2018-07-21T18:51:27.372Z,7.27
2018-07-21T18:53:56.815Z,7.83
2018-07-21T18:56:27.281Z,8.83
2018-07-21T18:58:57.313Z,7.50
2018-07-21T19:01:26.726Z,8.07
2018-07-21T19:03:57.527Z,8.33
2018-07-21T19:06:26.882Z,7.30
2018-07-21T19:09:01.039Z,7.13
2018-07-21T19:11:32.648Z,7.83
2018-07-21T19:14:02.181Z,8.60
2018-07-21T19:16:38.101Z,7.20
2018-07-21T19:19:08.756Z,7.90
2018-07-21T19:21:38.204Z,8.20
2018-07-21T19:24:07.881Z,7.90
2018-07-21T19:26:42.380Z,7.70
2018-07-21T19:29:11.710Z,8.47
2018-07-21T19:31:46.548Z,7.67
2018-07-21T19:34:16.055Z,8.30
2018-07-21T19:36:45.360Z,7.80
2018-07-21T19:39:15.126Z,8.10
2018-07-21T19:41:50.182Z,8.27
2018-07-21T19:44:19.850Z,7.20
2018-07-21T19:46:49.931Z,7.50
2018-07-21T19:49:20.801Z,7.30
2018-07-21T19:51:51.819Z,7.67
2018-07-21T19:54:21.613Z,7.67
2018-07-21T19:56:51.085Z,7.17
2018-07-21T19:59:21.280Z,8.47
2018-07-21T20:01:50.719Z,7.67
2018-07-21T20:04:20.787Z,8.10
2018-07-21T20:06:50.379Z,8.33
2018-07-21T20:09:19.829Z,7.57
2018-07-21T20:11:49.831Z,7.97
2018-07-21T20:14:19.350Z,7.70
2018-07-21T20:16:49.327Z,7.87
2018-07-21T20:19:19.383Z,8.40
2018-07-21T20:21:48.722Z,7.60
2018-07-21T20:24:17.968Z,8.90
2018-07-21T20:26:50.272Z,6.93
2018-07-21T20:29:19.607Z,7.50
2018-07-21T20:31:48.897Z,7.13
2018-07-21T20:34:18.445Z,7.27
2018-07-21T20:36:47.784Z,6.70
2018-07-21T20:39:17.158Z,6.70
2018-07-21T20:41:46.489Z,6.37
2018-07-21T20:44:16.340Z,6.77
2018-07-21T20:46:46.360Z,6.77
2018-07-21T20:49:15.598Z,7.20
2018-07-21T20:51:44.873Z,8.60
2018-07-21T20:54:14.161Z,6.97
2018-07-21T20:56:43.448Z,6.67
2018-07-21T20:59:12.760Z,6.33
2018-07-21T21:01:42.015Z,7.40
2018-07-21T21:04:11.381Z,5.67
2018-07-21T21:06:40.687Z,5.73
2018-07-21T21:09:10.815Z,7.97
2018-07-21T21:11:40.202Z,7.23
2018-07-21T21:14:09.468Z,7.70
2018-07-21T21:16:38.936Z,8.20
2018-07-21T21:19:08.271Z,8.20
2018-07-21T21:21:37.537Z,6.27
2018-07-21T21:24:06.767Z,6.10
2018-07-21T21:26:36.062Z,6.10
2018-07-21T21:29:05.518Z,6.37
2018-07-21T21:31:34.811Z,6.53
2018-07-21T21:34:04.122Z,6.07
2018-07-21T21:36:33.407Z,6.40
2018-07-21T21:39:02.758Z,6.70
2018-07-21T21:41:32.040Z,6.77
2018-07-21T21:44:01.346Z,6.67
2018-07-21T21:46:30.686Z,7.20
2018-07-21T21:48:59.945Z,7.97
2018-07-21T21:51:29.189Z,7.40
2018-07-21T21:53:58.529Z,7.20
2018-07-21T21:56:27.782Z,7.50
2018-07-21T21:58:57.100Z,7.57
2018-07-21T22:01:27.606Z,7.60
2018-07-21T22:03:57.023Z,7.30
2018-07-21T22:06:26.457Z,7.77
2018-07-21T22:08:56.706Z,7.27
2018-07-21T22:11:26.380Z,6.67
2018-07-21T22:13:56.884Z,7.07
2018-07-21T22:16:28.326Z,6.87
2018-07-21T22:18:57.722Z,6.27
2018-07-21T22:21:27.308Z,6.40
2018-07-21T22:23:56.511Z,6.57
2018-07-21T22:26:25.785Z,7.70
2018-07-21T22:28:55.069Z,6.97
2018-07-21T22:31:24.420Z,5.80
2018-07-21T22:33:53.667Z,6.10
2018-07-21T22:36:23.728Z,6.57
2018-07-21T22:38:53.846Z,6.40
2018-07-21T22:41:23.196Z,6.47
2018-07-21T22:43:52.629Z,7.60
2018-07-21T22:46:21.905Z,6.60
2018-07-21T22:48:51.169Z,6.53
2018-07-21T22:51:20.480Z,7.00
2018-07-21T22:53:49.736Z,6.50
2018-07-21T22:56:19.138Z,6.63
2018-07-21T22:58:48.422Z,6.50
2018-07-21T23:01:17.828Z,6.30
2018-07-21T23:03:47.185Z,6.50
2018-07-21T23:06:16.560Z,7.57
2018-07-21T23:08:45.780Z,8.10
2018-07-21T23:11:15.051Z,8.70
2018-07-21T23:13:44.400Z,9.40
2018-07-21T23:16:13.992Z,8.00
2018-07-21T23:18:43.592Z,7.20
2018-07-21T23:21:12.938Z,8.33
2018-07-21T23:23:42.220Z,7.90
2018-07-21T23:26:11.620Z,8.67
2018-07-21T23:28:40.868Z,8.80
2018-07-21T23:31:10.268Z,7.90
2018-07-21T23:33:39.741Z,7.33
2018-07-21T23:36:09.108Z,7.27
2018-07-21T23:38:38.459Z,8.53
2018-07-21T23:41:07.779Z,8.97
2018-07-21T23:43:37.275Z,8.00
2018-07-21T23:46:06.533Z,8.57
2018-07-21T23:48:35.831Z,8.37
2018-07-21T23:51:05.270Z,8.40
2018-07-21T23:53:34.590Z,7.90
2018-07-21T23:56:03.819Z,7.30
2018-07-21T23:58:33.114Z,7.50
